Camp Nelson, California
Current Conditions -  °F | °C
As of 3:55 AM on Tuesday 21 Oct 2014 (Local Time) from KPTV Reporting Station
Clear Clear  
Wind Chill: 54°   Ceiling: Unl
Heat Index: 54°   Visibility: 10mi
Dew Point: 46°   Wind: 6mph
Humidity: 77%   Direction: 210°SSW
Pressure: 30.03"   Gusts: NA
Location:  36.14°N, 118.61°W
Report Text: KPTV 211055Z 21005KT 10SM CLR 12/08 A3003 RMK AO1
Loading
Personal Weather Stations






























Interactive Weather Map
Tropical Storm Tracking
New forecast layout! Learn more

10-Day Weather Forecast

Advertisements
Track Severe Weather on mobile